createdAt,value
2018-05-29T00:00:33.061Z,22.2
2018-05-29T00:05:30.478Z,22.1
2018-05-29T00:10:27.828Z,22
2018-05-29T00:15:25.387Z,22.1
2018-05-29T00:20:22.884Z,21.9
2018-05-29T00:25:20.172Z,21.8
2018-05-29T00:30:17.691Z,21.9
2018-05-29T00:35:15.085Z,21.8
2018-05-29T00:40:12.421Z,21.7
2018-05-29T00:45:09.899Z,21.6
2018-05-29T00:50:07.530Z,21.5
2018-05-29T00:55:05.012Z,21.7
2018-05-29T01:00:02.406Z,21.6
2018-05-29T01:04:59.951Z,21.5
2018-05-29T01:09:57.362Z,21.4
2018-05-29T01:14:54.696Z,21.4
2018-05-29T01:19:52.132Z,21.3
2018-05-29T01:24:49.561Z,21.3
2018-05-29T01:29:47.197Z,21.4
2018-05-29T01:34:44.543Z,21.2
2018-05-29T01:39:42.029Z,21.3
2018-05-29T01:44:39.509Z,21.2
2018-05-29T01:49:37.179Z,21.2
2018-05-29T01:54:34.727Z,21
2018-05-29T01:59:31.940Z,21
2018-05-29T02:04:29.131Z,20.9
2018-05-29T02:09:26.584Z,20.9
2018-05-29T02:14:24.049Z,20.8
2018-05-29T02:19:21.353Z,20.8
2018-05-29T02:24:18.847Z,20.9
2018-05-29T02:29:16.310Z,20.7
2018-05-29T02:34:13.687Z,20.7
2018-05-29T02:39:10.943Z,20.6
2018-05-29T02:44:08.190Z,20.6
2018-05-29T02:49:05.694Z,20.5
2018-05-29T02:54:03.261Z,20.5
2018-05-29T02:59:00.616Z,20.5
2018-05-29T03:03:57.909Z,20.4
2018-05-29T03:08:54.773Z,20.4
2018-05-29T03:13:52.126Z,20.5
2018-05-29T03:18:49.715Z,20.4
2018-05-29T03:23:47.444Z,20.3
2018-05-29T03:28:44.757Z,20.2
2018-05-29T03:33:42.196Z,20.3
2018-05-29T03:38:39.763Z,20.1
2018-05-29T03:43:37.148Z,20.2
2018-05-29T03:48:34.659Z,20.1
2018-05-29T03:53:31.898Z,20.1
2018-05-29T03:58:29.332Z,20.1
2018-05-29T04:03:26.699Z,20.1
2018-05-29T04:08:24.224Z,20.1
2018-05-29T04:13:22.079Z,20.2
2018-05-29T04:18:19.467Z,20.2
2018-05-29T04:23:17.187Z,20.2
2018-05-29T04:28:14.474Z,20.1
2018-05-29T04:33:12.034Z,20.2
2018-05-29T04:38:09.568Z,20.2
2018-05-29T04:43:07.233Z,20
2018-05-29T04:48:04.916Z,20
2018-05-29T04:53:02.587Z,20.1
2018-05-29T04:58:00.125Z,20
2018-05-29T05:02:57.669Z,20.1
2018-05-29T05:07:54.952Z,19.9
2018-05-29T05:12:52.314Z,19.9
2018-05-29T05:17:49.507Z,19.9
2018-05-29T05:22:47.057Z,19.9
2018-05-29T05:27:44.529Z,19.9
2018-05-29T05:32:42.139Z,20
2018-05-29T05:37:39.755Z,20
2018-05-29T05:42:37.244Z,20
2018-05-29T05:47:34.865Z,19.9
2018-05-29T05:52:32.507Z,19.9
2018-05-29T05:57:29.944Z,19.9
2018-05-29T06:02:27.547Z,19.9
2018-05-29T06:07:25.030Z,19.9
2018-05-29T06:12:22.616Z,20
2018-05-29T06:17:20.239Z,20
2018-05-29T06:22:17.763Z,20
2018-05-29T06:27:15.148Z,19.9
2018-05-29T06:32:12.805Z,20
2018-05-29T06:37:10.476Z,20.1
2018-05-29T06:42:07.908Z,20
2018-05-29T06:47:05.461Z,20
2018-05-29T06:52:02.944Z,20.2
2018-05-29T06:57:00.660Z,20.2
2018-05-29T07:01:58.150Z,20.2
2018-05-29T07:06:55.674Z,20.3
2018-05-29T07:11:53.018Z,20.1
2018-05-29T07:16:50.804Z,20.2
2018-05-29T07:21:48.298Z,20.2
2018-05-29T07:26:45.965Z,20.3
2018-05-29T07:31:43.588Z,20.3
2018-05-29T07:36:41.489Z,20.3
2018-05-29T07:41:39.424Z,20.5
2018-05-29T07:46:37.329Z,20.4
2018-05-29T07:51:34.817Z,20.4
2018-05-29T07:56:33.249Z,20.5
2018-05-29T08:01:30.918Z,20.5
2018-05-29T08:06:28.818Z,20.5
2018-05-29T08:11:26.599Z,20.6
2018-05-29T08:16:24.051Z,20.7
2018-05-29T08:21:21.429Z,20.6
2018-05-29T08:26:18.690Z,20.7
2018-05-29T08:31:16.247Z,20.7
2018-05-29T08:36:14.192Z,20.9
2018-05-29T08:41:11.764Z,20.8
2018-05-29T08:46:09.601Z,20.8
2018-05-29T08:51:06.839Z,20.9
2018-05-29T08:56:04.176Z,20.9
2018-05-29T09:01:01.543Z,21
2018-05-29T09:05:59.001Z,21
2018-05-29T09:10:56.379Z,21
2018-05-29T09:15:53.791Z,21.1
2018-05-29T09:20:51.554Z,21.3
2018-05-29T09:25:49.377Z,21.3
2018-05-29T09:30:47.075Z,21.2
2018-05-29T09:35:44.555Z,21.3
2018-05-29T09:40:42.065Z,21.3
2018-05-29T09:45:40.169Z,21.4
2018-05-29T09:50:38.004Z,21.5
2018-05-29T09:55:36.216Z,21.5
2018-05-29T10:00:33.708Z,21.5
2018-05-29T10:05:31.133Z,21.5
2018-05-29T10:10:29.038Z,21.6
2018-05-29T10:15:26.472Z,21.6
2018-05-29T10:20:24.084Z,21.7
2018-05-29T10:25:21.939Z,21.7
2018-05-29T10:30:19.546Z,21.8
2018-05-29T10:35:17.094Z,21.8
2018-05-29T10:40:14.792Z,21.8
2018-05-29T10:45:11.969Z,22
2018-05-29T10:50:09.274Z,21.9
2018-05-29T10:55:06.965Z,22.1
2018-05-29T11:00:04.432Z,22
2018-05-29T11:05:02.112Z,22
2018-05-29T11:09:59.698Z,22.1
2018-05-29T11:14:58.472Z,22.1
2018-05-29T11:19:55.737Z,22.2
2018-05-29T11:24:53.344Z,22.2
2018-05-29T11:29:50.951Z,22.3
2018-05-29T11:34:48.753Z,22.5
2018-05-29T11:39:46.156Z,22.4
2018-05-29T11:44:43.627Z,22.4
2018-05-29T11:49:41.349Z,22.5
2018-05-29T11:54:39.096Z,22.5
2018-05-29T11:59:36.820Z,22.7
2018-05-29T12:04:34.222Z,22.6
2018-05-29T12:09:31.846Z,22.8
2018-05-29T12:14:29.500Z,22.9
2018-05-29T12:19:27.103Z,22.9
2018-05-29T12:24:24.883Z,23
2018-05-29T12:29:22.644Z,23
2018-05-29T12:34:20.386Z,23.1
2018-05-29T12:39:18.243Z,23.2
2018-05-29T12:44:16.016Z,23.2
2018-05-29T12:49:13.842Z,23.3
2018-05-29T12:54:11.565Z,23.4
2018-05-29T12:59:09.262Z,23.4
2018-05-29T13:04:06.981Z,23.4
2018-05-29T13:09:04.823Z,23.5
2018-05-29T13:14:02.592Z,23.5
2018-05-29T13:19:00.189Z,23.7
2018-05-29T13:23:57.968Z,23.8
2018-05-29T13:28:55.159Z,23.7
2018-05-29T13:33:52.257Z,23.9
2018-05-29T13:38:50.012Z,23.9
2018-05-29T13:43:47.736Z,23.9
2018-05-29T13:48:45.248Z,24
2018-05-29T13:53:42.714Z,24.1
2018-05-29T13:58:40.127Z,24.1
2018-05-29T14:03:37.745Z,24.2
2018-05-29T14:08:35.349Z,24.3
2018-05-29T14:13:32.831Z,24.3
2018-05-29T14:18:30.646Z,24.2
2018-05-29T14:23:27.984Z,24.4
2018-05-29T14:28:25.391Z,24.4
2018-05-29T14:33:23.147Z,24.5
2018-05-29T14:38:20.690Z,24.4
2018-05-29T14:43:18.514Z,24.6
2018-05-29T14:48:16.279Z,24.5
2018-05-29T14:53:13.830Z,24.6
2018-05-29T14:58:11.574Z,24.5
2018-05-29T15:03:09.123Z,24.7
2018-05-29T15:08:06.887Z,24.6
2018-05-29T15:13:04.300Z,24.7
2018-05-29T15:18:02.118Z,24.7
2018-05-29T15:22:59.715Z,24.7
2018-05-29T15:27:57.254Z,24.8
2018-05-29T15:32:54.901Z,24.8
2018-05-29T15:37:52.451Z,24.8
2018-05-29T15:42:49.918Z,24.8
2018-05-29T15:47:47.292Z,24.8
2018-05-29T15:52:44.787Z,24.8
2018-05-29T15:57:42.628Z,24.7
2018-05-29T16:02:40.195Z,24.8
2018-05-29T16:07:37.973Z,24.8
2018-05-29T16:12:35.731Z,24.7
2018-05-29T16:17:33.314Z,24.9
2018-05-29T16:22:30.892Z,24.9
2018-05-29T16:27:28.530Z,24.9
2018-05-29T16:32:26.171Z,24.9
2018-05-29T16:37:23.699Z,24.9
2018-05-29T16:42:21.412Z,24.9
2018-05-29T16:47:18.882Z,24.7
2018-05-29T16:52:16.491Z,24.9
2018-05-29T16:57:14.226Z,24.7
2018-05-29T17:02:11.889Z,24.7
2018-05-29T17:07:09.237Z,24.9
2018-05-29T17:12:06.983Z,24.9
2018-05-29T17:17:03.954Z,24.9
2018-05-29T17:22:01.465Z,24.9
2018-05-29T17:26:59.432Z,24.8
2018-05-29T17:31:57.253Z,24.7
2018-05-29T17:36:54.919Z,24.8
2018-05-29T17:41:52.967Z,24.7
2018-05-29T17:46:50.677Z,24.8
2018-05-29T17:51:48.364Z,24.8
2018-05-29T17:56:46.108Z,24.8
2018-05-29T18:01:43.785Z,24.7
2018-05-29T18:06:41.790Z,24.7
2018-05-29T18:11:39.337Z,24.8
2018-05-29T18:16:37.058Z,24.8
2018-05-29T18:21:34.234Z,24.8
2018-05-29T18:26:31.934Z,24.7
2018-05-29T18:31:29.641Z,24.7
2018-05-29T18:36:27.264Z,24.6
2018-05-29T18:41:25.004Z,24.6
2018-05-29T18:46:23.217Z,24.5
2018-05-29T18:51:20.688Z,24.5
2018-05-29T18:56:18.341Z,24.5
2018-05-29T19:01:16.005Z,24.6
2018-05-29T19:06:13.685Z,24.5
2018-05-29T19:11:11.345Z,24.5
2018-05-29T19:16:09.011Z,24.5
2018-05-29T19:21:05.895Z,24.5
2018-05-29T19:26:03.608Z,24.4
2018-05-29T19:31:01.340Z,24.2
2018-05-29T19:35:58.987Z,24.3
2018-05-29T19:40:56.447Z,24.3
2018-05-29T19:45:54.123Z,24.3
2018-05-29T19:50:51.671Z,24.2
2018-05-29T19:55:49.193Z,24.2
2018-05-29T20:00:46.733Z,24.2
2018-05-29T20:05:44.380Z,24
2018-05-29T20:10:42.093Z,24.1
2018-05-29T20:15:39.859Z,24
2018-05-29T20:20:37.181Z,24
2018-05-29T20:25:35.049Z,23.9
2018-05-29T20:30:32.618Z,23.9
2018-05-29T20:35:30.288Z,23.8
2018-05-29T20:40:27.931Z,23.7
2018-05-29T20:45:25.462Z,23.7
2018-05-29T20:50:22.525Z,23.8
2018-05-29T20:55:20.081Z,23.7
2018-05-29T21:00:17.811Z,23.5
2018-05-29T21:05:15.070Z,23.6
2018-05-29T21:10:12.640Z,23.5
2018-05-29T21:15:10.160Z,23.4
2018-05-29T21:20:07.525Z,23.5
2018-05-29T21:25:04.959Z,23.3
2018-05-29T21:30:02.397Z,23.4
2018-05-29T21:35:00.053Z,23.4
2018-05-29T21:39:57.570Z,23.3
2018-05-29T21:44:55.396Z,23.3
2018-05-29T21:49:52.972Z,23.2
2018-05-29T21:54:50.416Z,23.2
2018-05-29T21:59:48.367Z,23
2018-05-29T22:04:45.885Z,23.1
2018-05-29T22:09:43.502Z,23
2018-05-29T22:14:41.176Z,23
2018-05-29T22:19:38.596Z,23
2018-05-29T22:24:36.212Z,22.9
2018-05-29T22:29:33.805Z,22.7
2018-05-29T22:34:31.384Z,22.8
2018-05-29T22:39:28.976Z,22.6
2018-05-29T22:44:26.466Z,22.6
2018-05-29T22:49:24.178Z,22.7
2018-05-29T22:54:21.605Z,22.6
2018-05-29T22:59:18.997Z,22.6
2018-05-29T23:04:16.467Z,22.4
2018-05-29T23:09:13.955Z,22.4
2018-05-29T23:14:11.492Z,22.3
2018-05-29T23:19:08.929Z,22.3
2018-05-29T23:24:06.598Z,22.4
2018-05-29T23:29:04.222Z,22.2
2018-05-29T23:34:01.799Z,22.1
2018-05-29T23:38:59.385Z,22.1
2018-05-29T23:43:56.773Z,22
2018-05-29T23:48:54.268Z,22.1
2018-05-29T23:53:51.799Z,21.9
2018-05-29T23:58:49.410Z,22
